createdAt,value
2016-09-02T00:04:09.137Z,65.95
2016-09-02T00:09:06.095Z,66.49
2016-09-02T00:14:02.869Z,65.72
2016-09-02T00:18:59.526Z,66.30
2016-09-02T00:23:56.019Z,66.49
2016-09-02T00:28:53.505Z,66.49
2016-09-02T00:33:50.251Z,66.30
2016-09-02T00:38:46.935Z,66.49
2016-09-02T00:43:43.393Z,67.07
2016-09-02T00:48:39.875Z,66.88
2016-09-02T00:53:38.818Z,67.26
2016-09-02T00:58:35.148Z,67.65
2016-09-02T01:03:31.854Z,67.36
2016-09-02T01:08:28.644Z,67.26
2016-09-02T01:13:25.251Z,67.26
2016-09-02T01:18:21.937Z,67.23
2016-09-02T01:23:19.762Z,67.23
2016-09-02T01:28:15.970Z,67.52
2016-09-02T01:33:12.526Z,67.71
2016-09-02T01:38:10.153Z,67.13
2016-09-02T01:43:06.821Z,68.00
2016-09-02T01:48:03.456Z,67.81
2016-09-02T01:53:00.398Z,67.90
2016-09-02T01:57:56.996Z,67.81
2016-09-02T02:02:53.502Z,67.61
2016-09-02T02:07:49.865Z,67.90
2016-09-02T02:12:47.282Z,68.19
2016-09-02T02:17:44.241Z,67.71
2016-09-02T02:22:40.536Z,67.90
2016-09-02T02:27:37.083Z,68.16
2016-09-02T02:32:33.739Z,67.68
2016-09-02T02:37:30.497Z,67.42
2016-09-02T02:42:27.348Z,68.10
2016-09-02T02:47:24.225Z,67.39
2016-09-02T02:52:20.866Z,67.97
2016-09-02T02:57:17.813Z,67.52
2016-09-02T03:02:14.503Z,67.77
2016-09-02T03:07:10.974Z,67.68
2016-09-02T03:12:07.747Z,68.26
2016-09-02T03:17:04.417Z,68.16
2016-09-02T03:22:01.086Z,68.06
2016-09-02T03:26:57.466Z,68.06
2016-09-02T03:31:54.052Z,68.44
2016-09-02T03:36:50.861Z,68.16
2016-09-02T03:41:47.416Z,67.68
2016-09-02T03:46:43.961Z,67.87
2016-09-02T03:51:40.654Z,68.06
2016-09-02T03:56:37.076Z,67.87
2016-09-02T04:01:33.550Z,67.87
2016-09-02T04:06:30.691Z,67.10
2016-09-02T04:11:27.210Z,68.13
2016-09-02T04:16:23.742Z,68.70
2016-09-02T04:21:20.320Z,67.55
2016-09-02T04:26:16.999Z,67.68
2016-09-02T04:31:13.542Z,68.06
2016-09-02T04:36:10.132Z,68.22
2016-09-02T04:41:06.626Z,68.13
2016-09-02T04:46:05.809Z,67.87
2016-09-02T04:51:01.738Z,67.10
2016-09-02T04:55:59.424Z,67.19
2016-09-02T05:00:55.804Z,67.16
2016-09-02T05:05:52.585Z,67.55
2016-09-02T05:10:49.312Z,67.83
2016-09-02T05:15:45.868Z,66.81
2016-09-02T05:20:43.056Z,67.29
2016-09-02T05:25:40.006Z,67.39
2016-09-02T05:30:36.650Z,67.83
2016-09-02T05:35:33.241Z,67.58
2016-09-02T05:40:30.035Z,67.29
2016-09-02T05:45:26.752Z,66.62
2016-09-02T05:50:23.457Z,66.62
2016-09-02T05:55:20.121Z,65.78
2016-09-02T06:00:16.652Z,66.07
2016-09-02T06:05:13.988Z,65.98
2016-09-02T06:10:12.377Z,66.27
2016-09-02T06:15:08.891Z,66.36
2016-09-02T06:20:05.524Z,67.33
2016-09-02T06:25:02.559Z,67.52
2016-09-02T06:30:00.692Z,66.94
2016-09-02T06:34:56.834Z,66.20
2016-09-02T06:39:53.479Z,64.95
2016-09-02T06:44:50.630Z,64.79
2016-09-02T06:49:47.682Z,65.08
2016-09-02T06:54:44.521Z,66.75
2016-09-02T06:59:41.168Z,66.46
2016-09-02T07:04:39.599Z,66.97
2016-09-02T07:09:36.502Z,65.17
2016-09-02T07:14:33.314Z,66.24
2016-09-02T07:19:30.021Z,64.89
2016-09-02T07:24:26.699Z,63.37
2016-09-02T07:29:23.471Z,62.73
2016-09-02T07:34:20.305Z,60.31
2016-09-02T07:39:17.004Z,61.05
2016-09-02T07:44:13.892Z,61.31
2016-09-02T07:49:10.591Z,61.34
2016-09-02T07:54:07.429Z,60.31
2016-09-02T07:59:04.127Z,59.73
2016-09-02T08:04:00.782Z,59.05
2016-09-02T08:09:00.664Z,58.86
2016-09-02T08:13:57.191Z,58.47
2016-09-02T08:18:54.026Z,58.86
2016-09-02T08:23:50.852Z,57.92
2016-09-02T08:28:48.011Z,57.76
2016-09-02T08:33:44.199Z,57.44
2016-09-02T08:38:41.425Z,56.70
2016-09-02T08:43:40.856Z,56.79
2016-09-02T08:48:37.180Z,56.04
2016-09-02T08:53:33.800Z,56.02
2016-09-02T08:58:30.462Z,56.14
2016-09-02T09:03:27.221Z,55.46
2016-09-02T09:08:23.526Z,55.27
2016-09-02T09:13:20.037Z,54.49
2016-09-02T09:18:16.723Z,55.56
2016-09-02T09:23:13.088Z,54.69
2016-09-02T09:28:10.444Z,55.17
2016-09-02T09:33:06.823Z,54.49
2016-09-02T09:38:03.294Z,55.34
2016-09-02T09:43:00.030Z,56.30
2016-09-02T09:47:59.085Z,57.08
2016-09-02T09:52:55.060Z,56.70
2016-09-02T09:57:54.007Z,56.30
2016-09-02T10:02:50.058Z,56.88
2016-09-02T10:07:46.685Z,56.70
2016-09-02T10:12:43.447Z,56.70
2016-09-02T10:17:42.527Z,56.40
2016-09-02T10:22:39.125Z,56.50
2016-09-02T10:27:35.748Z,56.88
2016-09-02T10:32:32.265Z,56.67
2016-09-02T10:37:30.662Z,56.60
2016-09-02T10:42:26.962Z,55.92
2016-09-02T10:47:23.478Z,54.47
2016-09-02T10:52:20.149Z,54.66
2016-09-02T10:57:16.583Z,55.34
2016-09-02T11:02:13.340Z,53.59
2016-09-02T11:07:09.823Z,54.17
2016-09-02T11:12:06.601Z,54.75
2016-09-02T11:17:03.354Z,54.37
2016-09-02T11:22:00.163Z,53.50
2016-09-02T11:26:56.767Z,52.14
2016-09-02T11:31:53.790Z,50.40
2016-09-02T11:36:50.533Z,51.95
2016-09-02T11:41:47.338Z,50.98
2016-09-02T11:46:43.900Z,52.53
2016-09-02T11:51:41.010Z,52.53
2016-09-02T11:56:37.654Z,52.53
2016-09-02T12:01:34.437Z,52.34
2016-09-02T12:06:33.724Z,52.24
2016-09-02T12:11:29.998Z,51.56
2016-09-02T12:16:26.611Z,53.02
2016-09-02T12:21:23.257Z,51.66
2016-09-02T12:26:22.949Z,53.02
2016-09-02T12:31:18.953Z,52.34
2016-09-02T12:36:15.681Z,52.24
2016-09-02T12:41:15.147Z,51.56
2016-09-02T12:46:11.094Z,50.89
2016-09-02T12:51:07.619Z,49.54
2016-09-02T12:56:04.650Z,49.54
2016-09-02T13:01:01.201Z,46.75
2016-09-02T13:06:00.367Z,49.37
2016-09-02T13:10:56.598Z,49.37
2016-09-02T13:15:53.248Z,49.92
2016-09-02T13:20:49.769Z,49.65
2016-09-02T13:25:46.420Z,51.30
2016-09-02T13:30:44.173Z,50.52
2016-09-02T13:35:40.397Z,49.17
2016-09-02T13:40:37.154Z,47.14
2016-09-02T13:45:34.963Z,46.36
2016-09-02T13:50:31.599Z,45.10
2016-09-02T13:55:28.422Z,47.24
2016-09-02T14:00:24.803Z,44.91
2016-09-02T14:05:21.496Z,44.23
2016-09-02T14:10:18.148Z,46.08
2016-09-02T14:15:14.953Z,45.49
2016-09-02T14:20:11.592Z,45.98
2016-09-02T14:25:08.285Z,47.14
2016-09-02T14:30:05.297Z,47.36
2016-09-02T14:35:02.063Z,47.36
2016-09-02T14:39:58.931Z,47.16
2016-09-02T14:44:56.551Z,46.31
2016-09-02T14:49:59.291Z,50.29
2016-09-02T14:54:54.946Z,49.22
2016-09-02T14:59:51.805Z,47.09
2016-09-02T15:04:48.463Z,45.34
2016-09-02T15:09:45.137Z,44.26
2016-09-02T15:14:41.728Z,46.00
2016-09-02T15:19:38.360Z,45.42
2016-09-02T15:24:35.170Z,45.20
2016-09-02T15:29:31.826Z,44.81
2016-09-02T15:34:28.315Z,45.01
2016-09-02T15:39:25.037Z,45.20
2016-09-02T15:44:24.076Z,45.22
2016-09-02T15:49:20.116Z,44.81
2016-09-02T15:54:16.611Z,45.30
2016-09-02T15:59:13.467Z,46.08
2016-09-02T16:04:09.986Z,45.57
2016-09-02T16:09:09.121Z,46.26
2016-09-02T16:14:05.175Z,46.83
2016-09-02T16:19:01.826Z,47.50
2016-09-02T16:23:59.304Z,46.73
2016-09-02T16:28:55.963Z,46.83
2016-09-02T16:33:52.713Z,46.15
2016-09-02T16:38:49.793Z,46.53
2016-09-02T16:43:46.228Z,46.92
2016-09-02T16:48:42.971Z,47.09
2016-09-02T16:53:40.060Z,46.90
2016-09-02T16:58:36.940Z,47.09
2016-09-02T17:03:33.696Z,47.38
2016-09-02T17:08:30.191Z,47.48
2016-09-02T17:13:27.364Z,48.16
2016-09-02T17:18:23.956Z,48.25
2016-09-02T17:23:21.826Z,49.41
2016-09-02T17:28:18.228Z,49.68
2016-09-02T17:33:14.789Z,50.55
2016-09-02T17:38:11.566Z,51.13
2016-09-02T17:43:08.677Z,51.03
2016-09-02T17:48:05.205Z,51.90
2016-09-02T17:53:02.250Z,51.59
2016-09-02T17:57:59.377Z,52.26
2016-09-02T18:02:58.456Z,52.75
2016-09-02T18:07:54.280Z,52.45
2016-09-02T18:12:50.674Z,52.75
2016-09-02T18:17:47.499Z,53.52
2016-09-02T18:22:44.125Z,53.20
2016-09-02T18:27:40.881Z,53.23
2016-09-02T18:32:39.925Z,53.81
2016-09-02T18:37:36.124Z,53.49
2016-09-02T18:42:34.890Z,54.07
2016-09-02T18:47:30.925Z,54.19
2016-09-02T18:52:27.681Z,54.55
2016-09-02T18:57:24.219Z,54.75
2016-09-02T19:02:21.493Z,54.55
2016-09-02T19:07:18.280Z,54.46
2016-09-02T19:12:15.864Z,55.23
2016-09-02T19:17:12.396Z,55.04
2016-09-02T19:22:08.769Z,54.55
2016-09-02T19:27:06.127Z,55.42
2016-09-02T19:32:03.032Z,55.42
2016-09-02T19:36:59.850Z,55.62
2016-09-02T19:41:56.501Z,55.62
2016-09-02T19:46:53.346Z,55.90
2016-09-02T19:51:50.100Z,56.20
2016-09-02T19:56:46.850Z,56.00
2016-09-02T20:01:43.463Z,56.65
2016-09-02T20:06:40.510Z,56.48
2016-09-02T20:11:37.152Z,56.87
2016-09-02T20:16:34.668Z,56.56
2016-09-02T20:21:33.643Z,57.04
2016-09-02T20:26:29.703Z,56.68
2016-09-02T20:31:26.532Z,56.65
2016-09-02T20:36:23.033Z,56.94
2016-09-02T20:41:20.960Z,57.04
2016-09-02T20:46:17.375Z,56.84
2016-09-02T20:51:14.310Z,58.48
2016-09-02T20:56:11.514Z,58.29
2016-09-02T21:01:11.090Z,58.10
2016-09-02T21:06:07.294Z,58.19
2016-09-02T21:11:04.190Z,58.29
2016-09-02T21:16:00.896Z,58.00
2016-09-02T21:20:57.634Z,58.10
2016-09-02T21:25:54.305Z,58.00
2016-09-02T21:30:51.097Z,58.48
2016-09-02T21:35:48.251Z,58.00
2016-09-02T21:40:44.755Z,57.90
2016-09-02T21:45:43.925Z,58.29
2016-09-02T21:50:39.913Z,57.90
2016-09-02T21:55:36.951Z,58.87
2016-09-02T22:00:33.704Z,58.39
2016-09-02T22:05:30.341Z,58.58
2016-09-02T22:10:27.262Z,58.77
2016-09-02T22:15:23.782Z,58.58
2016-09-02T22:20:20.452Z,58.19
2016-09-02T22:25:17.073Z,58.68
2016-09-02T22:30:13.744Z,58.58
2016-09-02T22:35:10.703Z,58.58
2016-09-02T22:40:07.262Z,58.39
2016-09-02T22:45:04.360Z,59.06
2016-09-02T22:50:00.958Z,59.42
2016-09-02T22:54:57.572Z,58.84
2016-09-02T22:59:54.564Z,59.03
2016-09-02T23:04:51.321Z,59.35
2016-09-02T23:09:48.003Z,59.61
2016-09-02T23:14:44.426Z,60.10
2016-09-02T23:19:41.126Z,59.52
2016-09-02T23:24:37.994Z,59.13
2016-09-02T23:44:40.654Z,59.61
2016-09-02T23:49:37.250Z,59.52
2016-09-02T23:54:33.614Z,59.80
2016-09-02T23:59:30.173Z,59.90
